Time;durP1;ratioP1;P1;durP2;ratioP2;P2;SDS_P1;SDS_P2;PMS_P1;PMS_P2;Temp;Humidity;BMP_temperature;BMP_pressure;BME280_temperature;BME280_humidity;BME280_pressure;Samples;Min_cycle;Max_cycle;Signal;HPM_P1;HPM_P2
2023/04/15 00:02:17;;;;;;;9.60;6.53;;;;;;;5.71;100.00;99472.31;1484992;88;22805;-83
2023/04/15 00:04:46;;;;;;;19.10;8.25;;;;;;;5.66;100.00;99470.59;1478916;88;21566;-84
2023/04/15 00:07:13;;;;;;;8.53;6.83;;;;;;;5.60;100.00;99461.96;1477827;87;21419;-83
2023/04/15 00:14:13;;;;;;;12.33;8.23;;;;;;;5.45;100.00;99465.49;1477386;88;21478;-83
2023/04/15 00:16:39;;;;;;;12.53;8.93;;;;;;;5.38;100.00;99461.29;1472568;88;22365;-83
2023/04/15 00:19:06;;;;;;;14.27;7.83;;;;;;;5.40;100.00;99463.76;1478061;87;22642;-84
2023/04/15 00:25:32;;;;;;;10.90;7.43;;;;;;;5.35;100.00;99468.13;1484251;88;21406;-87
2023/04/15 00:27:58;;;;;;;10.97;5.97;;;;;;;5.32;100.00;99461.84;1482785;88;21360;-85
2023/04/15 00:30:25;;;;;;;7.40;5.93;;;;;;;5.25;100.00;99452.84;1470948;88;22372;-86
2023/04/15 00:32:51;;;;;;;8.87;5.20;;;;;;;5.30;100.00;99458.52;1483939;87;21375;-88
2023/04/15 00:35:17;;;;;;;8.60;6.20;;;;;;;5.28;100.00;99459.63;1477533;88;21783;-88
2023/04/15 00:37:44;;;;;;;7.43;5.87;;;;;;;5.21;100.00;99452.80;1480184;87;21361;-88
2023/04/15 00:40:12;;;;;;;7.97;6.13;;;;;;;5.16;100.00;99451.05;1476473;88;21404;-89
2023/04/15 00:42:39;;;;;;;10.37;7.70;;;;;;;5.16;100.00;99451.05;1481372;87;21515;-88
2023/04/15 00:45:07;;;;;;;8.33;7.27;;;;;;;5.17;100.00;99448.77;1478663;87;22772;-85
2023/04/15 00:47:36;;;;;;;7.90;6.00;;;;;;;5.18;100.00;99441.27;1473278;88;21553;-85
2023/04/15 00:50:02;;;;;;;8.70;6.90;;;;;;;5.24;100.00;99445.13;1483509;87;21791;-87
2023/04/15 00:52:28;;;;;;;10.20;7.33;;;;;;;5.24;100.00;99445.13;1488464;88;21545;-86
2023/04/15 00:54:55;;;;;;;6.70;5.87;;;;;;;5.28;100.00;99449.12;1487858;87;22440;-86
2023/04/15 00:57:22;;;;;;;10.30;6.33;;;;;;;5.32;100.00;99448.72;1483917;88;21368;-85
2023/04/15 00:59:48;;;;;;;8.23;6.00;;;;;;;5.32;100.00;99446.10;1462915;88;21514;-84
2023/04/15 01:02:15;;;;;;;8.17;6.10;;;;;;;5.29;100.00;99439.79;1481181;87;22417;-85
2023/04/15 01:04:42;;;;;;;9.23;6.63;;;;;;;5.32;100.00;99447.41;1470542;88;21331;-84
2023/04/15 01:07:08;;;;;;;13.87;8.70;;;;;;;5.32;100.00;99446.56;1482871;88;21405;-87
2023/04/15 01:09:34;;;;;;;10.73;8.40;;;;;;;5.34;100.00;99452.50;1481591;88;22471;-88
2023/04/15 01:12:05;;;;;;;10.20;7.73;;;;;;;5.37;100.00;99453.05;1481362;87;21360;-86
2023/04/15 01:14:31;;;;;;;11.28;8.90;;;;;;;5.37;100.00;99442.55;1466345;88;21374;-87
2023/04/15 01:16:57;;;;;;;10.80;8.13;;;;;;;5.42;100.00;99448.72;1479548;88;21271;-87
2023/04/15 01:19:24;;;;;;;8.50;6.47;;;;;;;5.47;100.00;99454.38;1482042;88;22239;-86
2023/04/15 01:21:50;;;;;;;10.40;7.80;;;;;;;5.50;100.00;99445.41;1480188;88;21331;-82
2023/04/15 01:24:18;;;;;;;7.80;6.63;;;;;;;5.53;100.00;99442.50;1483612;88;21455;-83
2023/04/15 01:26:45;;;;;;;10.13;8.13;;;;;;;5.57;100.00;99443.87;1496371;87;21507;-84
2023/04/15 01:29:12;;;;;;;10.90;7.67;;;;;;;5.59;100.00;99452.44;1473501;88;21434;-81
2023/04/15 01:31:39;;;;;;;11.20;7.97;;;;;;;5.59;100.00;99454.58;1476028;87;22426;-84
2023/04/15 01:34:05;;;;;;;9.77;7.40;;;;;;;5.59;100.00;99452.44;1472963;88;21456;-84
2023/04/15 01:36:33;;;;;;;10.03;7.20;;;;;;;5.59;100.00;99456.38;1464397;88;21586;-84
2023/04/15 01:38:59;;;;;;;8.60;6.93;;;;;;;5.61;100.00;99461.84;1468291;88;21847;-84
2023/04/15 01:41:27;;;;;;;8.87;6.47;;;;;;;5.65;100.00;99461.06;1477194;87;22556;-83
2023/04/15 01:43:54;;;;;;;8.33;6.70;;;;;;;5.71;100.00;99460.50;1477478;88;21353;-84
2023/04/15 01:46:20;;;;;;;7.67;6.40;;;;;;;5.77;100.00;99461.74;1467973;88;21302;-84
2023/04/15 01:48:47;;;;;;;9.47;7.20;;;;;;;5.81;100.00;99462.64;1476406;88;21523;-83
2023/04/15 01:51:13;;;;;;;9.13;7.10;;;;;;;5.81;100.00;99462.64;1477275;88;21330;-84
2023/04/15 01:53:39;;;;;;;10.50;7.70;;;;;;;5.79;100.00;99455.38;1475909;87;22431;-84
2023/04/15 01:56:06;;;;;;;12.27;8.73;;;;;;;5.78;100.00;99455.05;1477065;87;21338;-84
2023/04/15 01:58:33;;;;;;;9.13;7.30;;;;;;;5.76;100.00;99453.53;1474442;88;22376;-84
2023/04/15 02:00:59;;;;;;;13.60;8.23;;;;;;;5.75;100.00;99456.61;1467290;88;21419;-84
2023/04/15 02:03:26;;;;;;;9.90;7.83;;;;;;;5.79;100.00;99458.01;1476805;87;21420;-84
2023/04/15 02:05:52;;;;;;;10.07;7.40;;;;;;;5.88;100.00;99462.91;1478839;88;21360;-82
2023/04/15 02:08:18;;;;;;;9.10;7.23;;;;;;;5.93;100.00;99471.66;1472842;87;22240;-83
2023/04/15 02:10:45;;;;;;;7.97;6.60;;;;;;;5.97;100.00;99459.45;1475504;87;21530;-83
2023/04/15 02:13:11;;;;;;;8.57;7.13;;;;;;;6.02;100.00;99465.12;1478256;87;21427;-86
2023/04/15 02:15:37;;;;;;;10.83;7.33;;;;;;;6.09;100.00;99460.94;1465876;88;21504;-85
2023/04/15 02:18:04;;;;;;;9.30;7.87;;;;;;;6.17;100.00;99461.55;1472570;88;22337;-87
2023/04/15 02:20:31;;;;;;;11.57;8.40;;;;;;;6.25;100.00;99459.03;1468856;87;21482;-87
2023/04/15 02:22:57;;;;;;;9.27;7.90;;;;;;;6.31;100.00;99458.46;1467816;88;21405;-87
2023/04/15 02:25:23;;;;;;;11.70;9.63;;;;;;;6.36;100.00;99465.07;1471938;87;21397;-86
2023/04/15 02:27:49;;;;;;;11.50;7.50;;;;;;;6.41;100.00;99458.91;1477677;87;21612;-86
2023/04/15 02:30:16;;;;;;;11.23;8.80;;;;;;;6.47;100.00;99464.43;1473468;87;21456;-85
2023/04/15 02:32:43;;;;;;;13.77;8.40;;;;;;;6.52;100.00;99458.23;1478230;87;21360;-84
2023/04/15 02:35:10;;;;;;;9.97;7.83;;;;;;;6.59;100.00;99457.18;1467259;88;21293;-87
2023/04/15 02:37:55;;;;;;;10.20;8.17;;;;;;;6.67;100.00;99464.32;1460961;87;22417;-85
2023/04/15 02:40:22;;;;;;;11.60;8.70;;;;;;;6.72;100.00;99460.28;1469978;88;22894;-88
2023/04/15 02:42:48;;;;;;;13.97;8.60;;;;;;;6.78;100.00;99458.38;1475947;87;21420;-88
2023/04/15 02:45:15;;;;;;;10.77;8.53;;;;;;;6.82;100.00;99462.02;1475770;87;21390;-86
2023/04/15 02:47:42;;;;;;;13.33;8.90;;;;;;;6.86;100.00;99463.41;1474999;88;21428;-86
2023/04/15 02:50:12;;;;;;;10.53;7.80;;;;;;;6.88;100.00;99457.52;1476160;88;21369;-85
2023/04/15 02:52:40;;;;;;;12.13;8.07;;;;;;;6.92;100.00;99456.23;1474878;87;21479;-86
2023/04/15 02:55:09;;;;;;;12.67;7.93;;;;;;;6.94;100.00;99450.34;1477787;88;21367;-87
2023/04/15 02:57:40;;;;;;;15.70;7.87;;;;;;;6.98;100.00;99443.80;1475861;88;21603;-86
2023/04/15 03:00:09;;;;;;;16.25;8.70;;;;;;;7.01;100.00;99446.95;1481897;88;21346;-85
2023/04/15 03:02:37;;;;;;;13.63;7.67;;;;;;;7.07;100.00;99444.71;1469526;87;21331;-86
2023/04/15 03:05:05;;;;;;;10.43;7.10;;;;;;;7.10;100.00;99447.86;1456954;87;21294;-83
2023/04/15 03:07:32;;;;;;;12.40;8.00;;;;;;;7.14;100.00;99441.84;1475810;88;21339;-86
2023/04/15 03:09:58;;;;;;;13.03;6.53;;;;;;;7.19;100.00;99454.89;1480015;88;21347;-86
2023/04/15 03:12:24;;;;;;;13.77;8.13;;;;;;;7.19;100.00;99452.25;1475003;87;21442;-88
2023/04/15 03:14:50;;;;;;;8.97;8.03;;;;;;;7.19;100.00;99451.41;1481823;87;21441;-88
2023/04/15 03:17:17;;;;;;;11.10;7.30;;;;;;;7.20;100.00;99451.27;1475918;87;22313;-86
2023/04/15 03:19:43;;;;;;;10.13;7.33;;;;;;;7.20;100.00;99455.22;1459930;88;22552;-86
2023/04/15 03:22:10;;;;;;;11.33;7.97;;;;;;;7.20;100.00;99452.58;1470086;88;21301;-85
2023/04/15 03:24:36;;;;;;;11.23;7.30;;;;;;;7.23;100.00;99456.23;1470795;87;21516;-88
2023/04/15 03:27:02;;;;;;;9.83;7.17;;;;;;;7.26;100.00;99455.60;1471685;88;22308;-88
2023/04/15 03:29:28;;;;;;;11.03;7.60;;;;;;;7.26;100.00;99451.16;1468490;88;21412;-85
2023/04/15 03:31:55;;;;;;;9.17;7.10;;;;;;;7.30;100.00;99459.58;1478994;87;21470;-86
2023/04/15 03:34:21;;;;;;;10.90;8.50;;;;;;;7.31;100.00;99463.39;1485979;88;21434;-86
2023/04/15 03:36:47;;;;;;;12.60;8.43;;;;;;;7.29;100.00;99461.88;1491320;88;21323;-86
2023/04/15 03:39:14;;;;;;;13.57;8.87;;;;;;;7.27;100.00;99458.56;1499246;88;21515;-86
2023/04/15 03:41:40;;;;;;;12.20;8.57;;;;;;;7.25;100.00;99460.05;1481937;87;22270;-87
2023/04/15 03:44:06;;;;;;;10.63;8.20;;;;;;;7.23;100.00;99465.44;1473242;87;21456;-86
2023/04/15 03:46:32;;;;;;;13.43;8.63;;;;;;;7.24;100.00;99461.82;1478257;88;21446;-85
2023/04/15 03:48:59;;;;;;;10.10;7.33;;;;;;;7.26;100.00;99465.64;1490198;87;22372;-86
2023/04/15 03:51:28;;;;;;;10.37;7.80;;;;;;;7.28;100.00;99470.27;1472653;87;22232;-86
2023/04/15 03:53:54;;;;;;;11.53;8.37;;;;;;;7.30;100.00;99468.30;1485085;87;22328;-85
2023/04/15 03:56:22;;;;;;;10.47;8.00;;;;;;;7.34;100.00;99468.84;1478336;87;21368;-86
2023/04/15 03:58:48;;;;;;;13.73;8.20;;;;;;;7.38;100.00;99471.50;1480093;88;22416;-85
2023/04/15 04:01:15;;;;;;;9.70;7.50;;;;;;;7.39;100.00;99475.78;1484866;87;21426;-86
2023/04/15 04:03:41;;;;;;;10.43;7.93;;;;;;;7.39;100.00;99474.46;1483656;87;21435;-85
2023/04/15 04:06:07;;;;;;;12.37;8.83;;;;;;;7.41;100.00;99484.36;1472146;88;22277;-85
2023/04/15 04:08:34;;;;;;;9.57;7.93;;;;;;;7.41;100.00;99481.73;1486301;88;22587;-86
2023/04/15 04:11:00;;;;;;;12.83;8.27;;;;;;;7.42;100.00;99478.11;1483289;88;21389;-86
2023/04/15 04:13:26;;;;;;;8.70;7.43;;;;;;;7.42;100.00;99480.73;1484233;87;21492;-86
2023/04/15 04:15:52;;;;;;;11.93;8.07;;;;;;;7.43;100.00;99483.23;1489485;87;21737;-87
2023/04/15 04:18:19;;;;;;;9.30;6.87;;;;;;;7.47;100.00;99489.02;1483998;87;21412;-85
2023/04/15 04:20:45;;;;;;;12.20;8.00;;;;;;;7.50;100.00;99483.45;1485483;88;21331;-86
2023/04/15 04:23:12;;;;;;;11.83;7.67;;;;;;;7.56;100.00;99493.38;1479635;87;21462;-87
2023/04/15 04:25:38;;;;;;;12.00;8.23;;;;;;;7.62;100.00;99488.00;1470777;88;21404;-87
2023/04/15 04:28:04;;;;;;;9.90;7.73;;;;;;;7.67;100.00;99487.88;1481465;88;21381;-87
2023/04/15 04:30:30;;;;;;;10.30;7.57;;;;;;;7.72;100.00;99491.39;1454520;88;21330;-87
2023/04/15 04:32:56;;;;;;;10.90;7.67;;;;;;;7.74;100.00;99491.22;1476520;87;21441;-87
2023/04/15 04:35:23;;;;;;;11.47;6.60;;;;;;;7.76;100.00;99490.59;1479820;87;21331;-86
2023/04/15 04:37:49;;;;;;;8.67;6.67;;;;;;;7.79;100.00;99486.33;1476463;87;21414;-88
2023/04/15 04:40:16;;;;;;;10.67;8.30;;;;;;;7.82;100.00;99486.84;1477838;87;21368;-90
2023/04/15 04:42:42;;;;;;;11.13;8.10;;;;;;;7.87;100.00;99487.72;1472877;87;21376;-87
2023/04/15 04:45:09;;;;;;;18.97;8.43;;;;;;;7.94;100.00;99485.28;1472189;88;21361;-87
2023/04/15 04:47:35;;;;;;;18.13;9.70;;;;;;;8.01;100.00;99499.52;1474145;87;21375;-85
2023/04/15 04:50:02;;;;;;;11.30;8.73;;;;;;;8.08;100.00;99500.05;1473545;88;21339;-86
2023/04/15 04:52:28;;;;;;;11.03;7.40;;;;;;;8.09;100.00;99492.49;1480936;88;22337;-86
2023/04/15 04:54:55;;;;;;;10.47;6.63;;;;;;;8.13;100.00;99493.01;1473384;88;21434;-86
2023/04/15 04:57:21;;;;;;;7.40;5.87;;;;;;;8.16;100.00;99491.88;1471445;88;21397;-85
2023/04/15 04:59:47;;;;;;;9.17;6.80;;;;;;;8.19;100.00;99494.20;1462970;88;21390;-84
2023/04/15 05:02:14;;;;;;;9.13;6.47;;;;;;;8.22;100.00;99493.39;1484138;88;21368;-85
2023/04/15 05:04:40;;;;;;;10.83;7.43;;;;;;;8.29;100.00;99498.39;1480828;87;22403;-85
2023/04/15 05:07:07;;;;;;;8.83;6.37;;;;;;;8.36;100.00;99490.67;1472433;87;21413;-86
2023/04/15 05:09:35;;;;;;;9.37;7.20;;;;;;;8.44;100.00;99498.67;1465676;88;21352;-84
2023/04/15 05:12:01;;;;;;;10.10;7.03;;;;;;;8.48;100.00;99500.49;1468931;87;21553;-87
2023/04/15 05:14:27;;;;;;;7.63;6.37;;;;;;;8.55;100.00;99495.77;1478809;87;22321;-86
2023/04/15 05:16:54;;;;;;;9.50;6.47;;;;;;;8.61;100.00;99497.45;1477322;87;21339;-86
2023/04/15 05:19:20;;;;;;;7.73;5.50;;;;;;;8.68;100.00;99495.31;1468528;88;21567;-85
2023/04/15 05:21:46;;;;;;;11.63;6.53;;;;;;;8.75;100.00;99497.67;1480211;87;21486;-87
2023/04/15 05:24:13;;;;;;;8.40;5.47;;;;;;;8.82;100.00;99488.63;1477230;88;22710;-89
2023/04/15 05:26:39;;;;;;;11.60;6.67;;;;;;;8.91;100.00;99494.75;1472448;88;22373;-87
2023/04/15 05:29:30;;;;;;;11.83;7.17;;;;;;;9.02;100.00;99496.61;1472504;87;21808;-87
2023/04/15 05:31:57;;;;;;;;;;;;;;;9.15;100.00;99493.99;1479424;87;22321;-88
2023/04/15 05:34:23;;;;;;;7.73;5.57;;;;;;;9.18;100.00;99498.48;1479382;87;20348;-88
2023/04/15 05:36:49;;;;;;;8.53;5.60;;;;;;;9.22;100.00;99495.84;1474827;87;21360;-88
2023/04/15 05:39:15;;;;;;;7.63;6.03;;;;;;;9.31;100.00;99499.82;1472730;88;21301;-88
2023/04/15 05:41:43;;;;;;;7.93;5.57;;;;;;;9.40;100.00;99498.34;1474781;88;21361;-86
2023/04/15 05:44:09;;;;;;;6.67;5.53;;;;;;;9.50;100.00;99496.89;1468634;88;21360;-87
2023/04/15 05:46:36;;;;;;;6.50;5.83;;;;;;;9.57;100.00;99495.73;1470085;88;21367;-87
2023/04/15 05:49:02;;;;;;;6.27;5.03;;;;;;;9.62;100.00;99502.68;1475293;87;21485;-87
2023/04/15 05:51:28;;;;;;;9.63;6.13;;;;;;;9.71;100.00;99505.15;1478403;88;21449;-86
2023/04/15 05:53:54;;;;;;;6.70;5.60;;;;;;;9.90;100.00;99509.30;1484473;87;21478;-86
2023/04/15 05:56:21;;;;;;;6.50;4.97;;;;;;;10.02;99.01;99502.35;1477354;87;21489;-87
2023/04/15 05:58:47;;;;;;;6.47;4.93;;;;;;;10.27;98.75;99512.41;1473975;87;21323;-87
2023/04/15 06:01:14;;;;;;;8.63;5.50;;;;;;;10.35;97.14;99514.55;1474506;88;22255;-88
2023/04/15 06:03:40;;;;;;;9.97;4.97;;;;;;;10.46;97.45;99510.73;1478917;87;21885;-87
2023/04/15 06:06:06;;;;;;;5.53;4.43;;;;;;;10.50;96.57;99513.85;1479426;88;22313;-91
2023/04/15 06:08:32;;;;;;;6.03;4.40;;;;;;;10.50;95.26;99519.14;1477171;88;21389;-88
2023/04/15 06:10:59;;;;;;;6.20;4.90;;;;;;;10.53;95.55;99519.66;1471789;88;21346;-90
2023/04/15 06:13:25;;;;;;;8.03;5.63;;;;;;;10.55;95.56;99527.41;1480989;88;21442;-90
2023/04/15 06:15:52;;;;;;;15.27;7.00;;;;;;;10.55;94.76;99525.58;1480057;87;21464;-89
2023/04/15 06:18:19;;;;;;;9.17;6.00;;;;;;;10.54;94.38;99523.13;1483430;87;21405;-90
2023/04/15 06:20:45;;;;;;;9.73;4.87;;;;;;;10.53;94.47;99527.59;1471707;87;21530;-90
2023/04/15 06:23:11;;;;;;;9.77;4.70;;;;;;;10.53;94.54;99529.39;1470172;87;21375;-89
2023/04/15 06:25:38;;;;;;;7.43;4.73;;;;;;;10.45;94.10;99526.78;1472294;88;22419;-86
2023/04/15 06:28:04;;;;;;;5.23;4.53;;;;;;;10.47;93.78;99534.03;1478612;87;21375;-85
2023/04/15 06:30:30;;;;;;;7.53;4.87;;;;;;;10.45;93.62;99536.87;1471077;87;22292;-87
2023/04/15 06:32:56;;;;;;;10.07;5.13;;;;;;;10.50;93.42;99535.02;1465398;88;21391;-87
2023/04/15 06:35:23;;;;;;;7.77;4.43;;;;;;;10.53;93.16;99542.61;1476344;87;21590;-86
2023/04/15 06:37:49;;;;;;;7.43;5.07;;;;;;;10.56;93.19;99537.84;1488564;87;21389;-86
2023/04/15 06:40:15;;;;;;;5.23;3.97;;;;;;;10.60;92.79;99544.93;1480485;87;22457;-89
2023/04/15 06:42:42;;;;;;;6.77;4.40;;;;;;;10.66;93.02;99545.58;1487824;88;21501;-89
2023/04/15 06:45:09;;;;;;;4.97;4.43;;;;;;;10.66;92.00;99546.89;1481884;87;21404;-88
2023/04/15 06:47:35;;;;;;;5.30;4.30;;;;;;;10.69;91.68;99547.88;1486725;87;22276;-86
2023/04/15 06:50:02;;;;;;;5.77;4.63;;;;;;;10.71;91.57;99549.05;1486860;87;21337;-89
2023/04/15 06:52:29;;;;;;;6.77;4.57;;;;;;;10.74;91.70;99550.03;1483469;87;21352;-84
2023/04/15 06:54:55;;;;;;;6.50;4.10;;;;;;;10.74;91.51;99545.55;1479919;87;21551;-86
2023/04/15 06:57:21;;;;;;;8.17;4.87;;;;;;;10.80;91.73;99552.81;1482070;87;21352;-86
2023/04/15 07:00:00;;;;;;;5.27;3.90;;;;;;;10.90;91.91;99555.25;1488050;87;21515;-86
2023/04/15 07:02:26;;;;;;;5.07;3.63;;;;;;;11.13;92.45;99557.15;1480615;87;22402;-87
2023/04/15 07:09:22;;;;;;;5.00;3.00;;;;;;;11.74;91.89;99557.65;1469310;88;21508;-87
2023/04/15 07:12:51;;;;;;;;;;;;;;;;;;;;;
2023/04/15 07:15:25;;;;;;;5.20;4.03;;;;;;;12.27;84.32;99544.99;1501434;87;21604;-86
2023/04/15 07:17:55;;;;;;;6.43;4.07;;;;;;;12.51;86.98;99552.70;1479927;88;21434;-86
2023/04/15 07:20:33;;;;;;;10.67;3.80;;;;;;;12.51;83.42;99555.86;1482793;87;21361;-87
2023/04/15 07:22:55;;;;;;;5.10;3.43;;;;;;;12.46;84.20;99560.41;1484841;88;21323;-86
2023/04/15 07:25:25;;;;;;;3.93;2.80;;;;;;;12.38;83.16;99553.84;1469073;88;21368;-81
2023/04/15 07:27:53;;;;;;;4.47;2.90;;;;;;;12.23;81.33;99560.93;1480750;87;22277;-82
2023/04/15 07:30:19;;;;;;;3.80;2.80;;;;;;;12.17;81.94;99560.66;1484419;88;21390;-82
2023/04/15 07:32:45;;;;;;;4.60;3.00;;;;;;;12.11;81.25;99569.81;1488882;88;21309;-81
2023/04/15 07:35:12;;;;;;;5.77;3.20;;;;;;;12.00;79.59;99573.73;1468525;88;21612;-81
2023/04/15 07:37:39;;;;;;;4.30;2.60;;;;;;;12.02;81.28;99574.36;1484165;88;21324;-80
2023/04/15 07:40:07;;;;;;;4.27;3.00;;;;;;;12.14;81.81;99572.96;1483695;87;21354;-88
2023/04/15 07:42:34;;;;;;;4.50;3.17;;;;;;;12.39;81.92;99579.37;1477685;87;21302;-84
2023/04/15 07:45:00;;;;;;;3.97;2.80;;;;;;;12.76;81.94;99576.36;1474588;87;21301;-83
2023/04/15 07:47:27;;;;;;;2.73;1.90;;;;;;;13.04;80.48;99570.72;1475496;87;21471;-83
2023/04/15 07:49:53;;;;;;;3.87;1.83;;;;;;;13.30;78.83;99578.74;1474567;88;22307;-84
2023/04/15 07:52:19;;;;;;;2.83;2.00;;;;;;;13.50;76.92;99573.16;1467915;87;21574;-84
2023/04/15 07:54:46;;;;;;;3.20;2.23;;;;;;;13.63;74.96;99575.13;1477086;88;21331;-82
2023/04/15 07:57:12;;;;;;;2.63;2.00;;;;;;;13.84;75.12;99580.14;1480136;88;21545;-81
2023/04/15 07:59:38;;;;;;;4.30;2.23;;;;;;;13.93;73.33;99577.18;1476912;88;21405;-83
2023/04/15 08:02:04;;;;;;;3.17;2.73;;;;;;;14.02;72.83;99582.37;1468275;87;21524;-82
2023/04/15 08:04:31;;;;;;;2.57;2.00;;;;;;;14.03;72.57;99584.02;1471590;87;21375;-82
2023/04/15 08:07:00;;;;;;;2.93;1.80;;;;;;;13.99;71.03;99576.42;1469471;88;21471;-82
2023/04/15 08:09:26;;;;;;;4.97;2.10;;;;;;;13.94;70.54;99575.34;1473604;87;21530;-83
2023/04/15 08:11:53;;;;;;;3.43;2.70;;;;;;;13.87;70.37;99578.45;1480581;87;21265;-83
2023/04/15 08:14:19;;;;;;;3.27;1.97;;;;;;;13.84;70.00;99578.80;1484014;85;21649;-84
2023/04/15 08:16:45;;;;;;;7.30;2.80;;;;;;;13.92;69.66;99582.16;1480698;88;21462;-84
2023/04/15 08:19:11;;;;;;;6.70;1.93;;;;;;;13.98;68.53;99585.42;1480103;87;21391;-85
2023/04/15 08:21:38;;;;;;;2.20;1.63;;;;;;;13.98;67.42;99588.08;1486114;87;21597;-86
2023/04/15 08:24:05;;;;;;;2.83;1.80;;;;;;;14.06;67.16;99589.77;1474723;87;21339;-87
2023/04/15 08:26:32;;;;;;;4.87;2.73;;;;;;;14.15;64.64;99587.29;1478087;88;22296;-86
2023/04/15 08:28:58;;;;;;;3.40;1.60;;;;;;;14.23;64.97;99578.36;1478259;88;22737;-86
2023/04/15 08:31:28;;;;;;;4.00;2.03;;;;;;;14.39;65.77;99590.59;1478890;87;21316;-87
2023/04/15 08:33:56;;;;;;;3.27;2.20;;;;;;;14.54;63.26;99581.20;1475462;88;21390;-86
2023/04/15 08:36:22;;;;;;;3.40;1.40;;;;;;;14.56;63.94;99583.17;1475671;87;21597;-86
2023/04/15 08:38:49;;;;;;;4.87;1.50;;;;;;;14.53;64.21;99586.19;1482284;88;21515;-86
2023/04/15 08:41:26;;;;;;;2.70;1.90;;;;;;;14.49;63.37;99584.41;1480981;87;21360;-88
2023/04/15 08:44:07;;;;;;;2.03;1.43;;;;;;;14.64;63.46;99576.34;1480886;87;21309;-87
2023/04/15 08:46:33;;;;;;;2.23;1.50;;;;;;;14.88;63.93;99580.41;1475621;87;21257;-86
2023/04/15 08:49:03;;;;;;;2.97;1.80;;;;;;;15.14;61.31;99577.05;1480989;88;21412;-87
2023/04/15 08:51:31;;;;;;;3.35;1.70;;;;;;;15.17;59.54;99582.50;1476826;87;21412;-87
2023/04/15 08:54:14;;;;;;;3.10;2.20;;;;;;;15.28;60.92;99583.27;1466064;88;21630;-86
2023/04/15 08:56:42;;;;;;;2.33;1.70;;;;;;;15.43;61.44;99580.45;1468971;88;21634;-87
2023/04/15 08:59:08;;;;;;;3.07;1.70;;;;;;;15.53;61.09;99584.37;1476533;87;21469;-86
2023/04/15 09:01:37;;;;;;;2.53;1.90;;;;;;;15.77;60.97;99573.71;1479173;88;21456;-86
2023/04/15 09:04:06;;;;;;;3.20;1.93;;;;;;;15.72;59.59;99568.16;1483388;88;21486;-87
2023/04/15 09:06:33;;;;;;;2.83;2.00;;;;;;;15.89;59.22;99579.79;1481762;88;21532;-86
2023/04/15 09:09:00;;;;;;;3.13;1.87;;;;;;;15.96;59.52;99576.61;1469403;88;22182;-87
2023/04/15 09:11:26;;;;;;;2.50;1.93;;;;;;;15.82;57.16;99577.61;1472033;88;21404;-87
2023/04/15 09:13:53;;;;;;;2.33;1.67;;;;;;;16.16;59.74;99579.30;1471602;88;22440;-87
2023/04/15 09:16:19;;;;;;;2.20;1.53;;;;;;;16.46;60.26;99573.05;1479676;88;21354;-89
2023/04/15 09:18:45;;;;;;;1.90;1.30;;;;;;;16.64;58.47;99577.23;1469528;87;22219;-86
2023/04/15 09:21:16;;;;;;;3.57;1.27;;;;;;;16.54;57.29;99570.13;1475085;88;21330;-87
2023/04/15 09:24:01;;;;;;;2.83;1.53;;;;;;;16.41;57.94;99566.16;1470647;88;22277;-85
2023/04/15 09:26:36;;;;;;;3.37;1.43;;;;;;;16.18;58.08;99574.06;1475986;87;21353;-83
2023/04/15 09:29:12;;;;;;;4.10;1.63;;;;;;;15.84;56.01;99579.05;1470928;88;21346;-84
2023/04/15 09:31:39;;;;;;;3.57;1.70;;;;;;;15.42;55.12;99580.13;1476560;87;21458;-82
2023/04/15 09:34:06;;;;;;;1.73;1.57;;;;;;;15.37;57.94;99580.74;1464584;88;22322;-84
2023/04/15 09:36:53;;;;;;;2.67;1.73;;;;;;;15.31;58.24;99582.36;1475110;87;21676;-84
2023/04/15 09:39:20;;;;;;;2.90;1.80;;;;;;;15.41;59.24;99571.83;1464005;88;21619;-84
2023/04/15 09:41:49;;;;;;;2.20;1.77;;;;;;;15.84;59.34;99567.05;1471137;87;21346;-84
2023/04/15 09:44:52;;;;;;;4.07;1.80;;;;;;;16.26;58.63;99557.55;1454371;87;21522;-84
2023/04/15 09:47:34;;;;;;;2.90;1.60;;;;;;;16.26;55.66;99550.87;1470970;88;21545;-83
2023/04/15 09:50:01;;;;;;;3.13;1.67;;;;;;;16.43;55.18;99552.09;1455269;88;21397;-83
2023/04/15 09:52:27;;;;;;;4.90;1.90;;;;;;;16.53;55.49;99547.14;1469798;88;21375;-83
2023/04/15 09:54:56;;;;;;;2.23;1.60;;;;;;;16.51;54.58;99542.51;1478012;88;21412;-84
2023/04/15 09:57:23;;;;;;;2.83;2.03;;;;;;;16.31;54.37;99548.38;1475292;87;22269;-84
2023/04/15 09:59:50;;;;;;;5.80;3.03;;;;;;;16.24;54.04;99551.06;1477365;88;21449;-83
2023/04/15 10:02:23;;;;;;;2.97;1.80;;;;;;;16.18;51.56;99550.03;1476273;87;22262;-83
2023/04/15 10:04:48;;;;;;;;;;;;;;;16.18;51.23;99551.89;1475441;88;21466;-85
2023/04/15 10:07:19;;;;;;;2.77;1.80;;;;;;;15.81;47.92;99558.63;1479451;88;20378;-85
2023/04/15 10:09:45;;;;;;;6.80;3.47;;;;;;;15.58;49.60;99558.44;1483118;87;21507;-84
2023/04/15 10:12:12;;;;;;;4.77;2.17;;;;;;;15.38;50.32;99565.56;1478444;87;22270;-84
2023/04/15 10:14:41;;;;;;;5.83;3.00;;;;;;;15.17;50.52;99567.33;1478723;87;21434;-84
2023/04/15 10:17:14;;;;;;;3.83;2.50;;;;;;;15.00;51.41;99566.02;1463636;88;21456;-83
2023/04/15 10:19:41;;;;;;;3.20;2.40;;;;;;;14.77;51.35;99570.30;1474987;88;21353;-84
2023/04/15 10:22:08;;;;;;;2.60;2.20;;;;;;;14.54;51.72;99567.89;1479073;88;21346;-85
2023/04/15 10:24:34;;;;;;;4.60;3.33;;;;;;;14.35;52.87;99573.34;1477511;87;22276;-86
2023/04/15 10:27:05;;;;;;;5.70;2.40;;;;;;;14.13;55.17;99569.89;1473933;88;21523;-85
2023/04/15 10:29:31;;;;;;;4.17;2.60;;;;;;;13.87;56.00;99575.28;1459702;88;22395;-86
2023/04/15 10:32:00;;;;;;;4.93;2.80;;;;;;;13.64;57.05;99582.62;1480204;87;21242;-85
2023/04/15 10:34:28;;;;;;;3.30;2.27;;;;;;;13.43;58.82;99584.20;1471084;87;21581;-84
2023/04/15 10:37:03;;;;;;;4.53;2.50;;;;;;;13.20;60.69;99582.15;1474403;87;21508;-83
2023/04/15 10:39:41;;;;;;;4.97;1.73;;;;;;;12.99;62.27;99586.38;1471549;87;21360;-84
2023/04/15 10:42:15;;;;;;;5.27;2.43;;;;;;;12.83;61.95;99581.24;1472812;87;21538;-83
2023/04/15 10:44:51;;;;;;;9.83;4.03;;;;;;;12.68;62.41;99588.38;1479491;88;21316;-83
2023/04/15 10:47:20;;;;;;;5.60;3.37;;;;;;;12.57;63.91;99593.62;1475978;87;21547;-83
2023/04/15 10:49:59;;;;;;;8.53;2.53;;;;;;;12.54;65.02;99588.67;1481805;88;21508;-83
2023/04/15 10:52:27;;;;;;;4.83;2.23;;;;;;;12.49;66.37;99594.55;1471479;88;21497;-83
2023/04/15 10:55:12;;;;;;;9.47;4.00;;;;;;;12.47;67.08;99603.69;1476394;88;21383;-83
2023/04/15 10:57:40;;;;;;;19.27;6.43;;;;;;;12.49;67.33;99597.20;1472917;87;21353;-83
2023/04/15 11:00:15;;;;;;;6.53;2.83;;;;;;;12.57;67.56;99590.48;1479128;87;21294;-83
2023/04/15 11:02:52;;;;;;;5.13;3.70;;;;;;;12.74;67.93;99584.48;1467489;87;22439;-83
2023/04/15 11:05:20;;;;;;;34.93;14.67;;;;;;;13.13;69.38;99589.22;1487567;87;21511;-82
2023/04/15 11:07:55;;;;;;;25.07;11.40;;;;;;;13.50;68.19;99581.64;1478382;87;22284;-82
2023/04/15 11:10:32;;;;;;;12.80;4.50;;;;;;;14.03;68.57;99578.69;1465575;88;21509;-82
2023/04/15 11:13:05;;;;;;;14.07;6.43;;;;;;;14.58;66.61;99577.13;1471287;88;22218;-82
2023/04/15 11:15:40;;;;;;;2.63;2.10;;;;;;;15.21;65.07;99577.89;1480537;87;21613;-82
2023/04/15 11:18:15;;;;;;;1.67;1.40;;;;;;;15.39;62.07;99579.19;1477383;87;21346;-83
2023/04/15 11:20:46;;;;;;;3.90;1.70;;;;;;;15.28;61.19;99584.09;1481247;88;22253;-82
2023/04/15 11:23:15;;;;;;;7.23;4.63;;;;;;;15.28;60.97;99586.76;1475794;87;21390;-82
2023/04/15 11:25:42;;;;;;;11.13;4.73;;;;;;;15.50;61.82;99575.95;1466073;88;22277;-82
2023/04/15 11:28:10;;;;;;;9.90;5.20;;;;;;;15.69;60.59;99571.74;1476084;87;21490;-82
2023/04/15 11:30:37;;;;;;;3.00;2.13;;;;;;;15.94;57.36;99565.30;1476025;87;22261;-85
2023/04/15 11:33:07;;;;;;;3.00;1.90;;;;;;;16.23;56.69;99565.45;1467175;88;21367;-85
2023/04/15 11:35:35;;;;;;;3.55;1.62;;;;;;;16.41;57.17;99560.30;1474500;88;21431;-86
2023/04/15 11:38:07;;;;;;;4.03;1.40;;;;;;;16.45;48.91;99574.05;1474731;87;21426;-84
2023/04/15 11:40:35;;;;;;;3.03;1.73;;;;;;;16.55;48.32;99569.13;1485934;87;21581;-86
2023/04/15 11:43:15;;;;;;;5.63;2.87;;;;;;;16.51;48.77;99570.55;1496515;88;21367;-84
2023/04/15 11:46:00;;;;;;;4.90;1.52;;;;;;;16.40;49.12;99574.69;1483505;87;22283;-84
2023/04/15 11:48:32;;;;;;;4.67;1.70;;;;;;;16.23;48.78;99572.13;1480458;88;21390;-85
2023/04/15 11:51:04;;;;;;;3.33;1.70;;;;;;;16.18;49.27;99578.06;1483569;87;21584;-86